Time;durP1;ratioP1;P1;durP2;ratioP2;P2;SDS_P1;SDS_P2;PMS_P1;PMS_P2;Temp;Humidity;BMP_temperature;BMP_pressure;BME280_temperature;BME280_humidity;BME280_pressure;Samples;Min_cycle;Max_cycle;Signal;HPM_P1;HPM_P2
2023/04/26 00:02:26;;;;;;;9.15;2.33;;;3.50;99.90;;;;;;4860286;29;20516;-80
2023/04/26 00:04:57;;;;;;;5.70;2.20;;;3.40;99.90;;;;;;4845352;29;20412;-80
2023/04/26 00:07:24;;;;;;;6.45;2.25;;;3.30;99.90;;;;;;4860173;29;20077;-80
2023/04/26 00:09:54;;;;;;;8.40;2.22;;;3.30;99.90;;;;;;4859890;29;20495;-80
2023/04/26 00:12:21;;;;;;;6.40;1.90;;;3.40;99.90;;;;;;4860318;29;20053;-80
2023/04/26 00:14:47;;;;;;;7.72;2.17;;;3.30;99.90;;;;;;4860420;29;20052;-80
2023/04/26 00:17:14;;;;;;;9.73;2.75;;;3.30;99.90;;;;;;4874875;29;20125;-80
2023/04/26 00:19:41;;;;;;;9.50;1.95;;;3.20;99.90;;;;;;4875832;29;20042;-80
2023/04/26 00:22:08;;;;;;;9.40;2.35;;;3.40;99.90;;;;;;4862795;29;20050;-80
2023/04/26 00:24:35;;;;;;;10.10;2.10;;;4.00;99.90;;;;;;4893729;29;20050;-79
2023/04/26 00:27:08;;;;;;;10.30;2.85;;;3.20;99.90;;;;;;4878263;29;20132;-80
2023/04/26 00:29:35;;;;;;;7.53;2.30;;;3.20;99.90;;;;;;4893324;29;20042;-80
2023/04/26 00:32:02;;;;;;;11.00;2.05;;;3.20;99.90;;;;;;4877668;29;20049;-80
2023/04/26 00:34:36;;;;;;;7.10;2.15;;;3.20;99.90;;;;;;4862629;29;20077;-80
2023/04/26 00:37:04;;;;;;;11.57;1.92;;;3.20;99.90;;;;;;4878109;29;20045;-80
2023/04/26 00:39:31;;;;;;;7.97;2.05;;;3.30;99.90;;;;;;4877814;29;20045;-80
2023/04/26 00:41:58;;;;;;;6.75;1.90;;;3.10;99.90;;;;;;4893233;29;20463;-80
2023/04/26 00:44:24;;;;;;;11.32;2.25;;;3.20;99.90;;;;;;4877613;29;20422;-80
2023/04/26 00:46:52;;;;;;;4.10;1.77;;;3.20;99.90;;;;;;4862629;29;20088;-80
2023/04/26 00:49:22;;;;;;;8.82;2.05;;;3.20;99.90;;;;;;4862339;29;20049;-80
2023/04/26 00:51:51;;;;;;;6.10;1.98;;;3.20;99.90;;;;;;4877625;29;20132;-80
2023/04/26 00:54:19;;;;;;;6.75;1.80;;;3.20;99.90;;;;;;4892770;29;20541;-80
2023/04/26 00:56:46;;;;;;;6.05;1.77;;;3.10;99.90;;;;;;4847474;29;20043;-80
2023/04/26 00:59:13;;;;;;;4.72;2.00;;;3.10;99.90;;;;;;4892548;29;20049;-80
2023/04/26 01:01:41;;;;;;;6.13;2.13;;;3.10;99.90;;;;;;4877553;29;20049;-80
2023/04/26 01:04:08;;;;;;;8.95;1.92;;;3.10;99.90;;;;;;4847106;29;20049;-79
2023/04/26 01:06:37;;;;;;;7.43;1.92;;;3.10;99.90;;;;;;4892424;29;20411;-80
2023/04/26 01:09:14;;;;;;;5.10;1.95;;;3.80;99.90;;;;;;4877607;29;20080;-80
2023/04/26 01:11:42;;;;;;;10.98;2.40;;;3.20;99.90;;;;;;4848998;29;20086;-80
2023/04/26 01:14:09;;;;;;;7.93;2.10;;;3.20;99.90;;;;;;4877270;29;20112;-80
2023/04/26 01:16:38;;;;;;;9.98;2.22;;;3.20;99.90;;;;;;4862366;29;20041;-80
2023/04/26 01:19:11;;;;;;;9.38;1.88;;;3.20;99.90;;;;;;4862367;29;20116;-80
2023/04/26 01:21:39;;;;;;;6.85;1.73;;;3.20;99.90;;;;;;4877708;29;20053;-80
2023/04/26 01:24:09;;;;;;;7.75;2.30;;;3.80;99.90;;;;;;4858708;29;20045;-80
2023/04/26 01:26:42;;;;;;;7.85;2.03;;;3.30;99.90;;;;;;4873706;29;20049;-80
2023/04/26 01:29:17;;;;;;;8.90;2.03;;;3.30;99.90;;;;;;4859735;29;20416;-80
2023/04/26 01:31:45;;;;;;;7.50;2.25;;;3.60;99.90;;;;;;4874109;29;20037;-80
2023/04/26 01:34:12;;;;;;;6.88;2.17;;;3.30;99.90;;;;;;4861894;29;20129;-80
2023/04/26 01:36:38;;;;;;;7.25;2.03;;;3.40;99.90;;;;;;4891957;29;20135;-80
2023/04/26 01:39:07;;;;;;;6.63;1.80;;;3.30;99.90;;;;;;4862414;29;20136;-80
2023/04/26 01:41:33;;;;;;;9.18;2.10;;;3.30;99.90;;;;;;4877059;29;20061;-80
2023/04/26 01:44:00;;;;;;;5.03;2.08;;;3.30;99.90;;;;;;4861748;29;20511;-80
2023/04/26 01:46:27;;;;;;;7.40;2.13;;;3.80;99.90;;;;;;4861325;29;20518;-80
2023/04/26 01:48:54;;;;;;;3.78;1.48;;;3.50;99.90;;;;;;4876887;29;20396;-80
2023/04/26 01:51:20;;;;;;;5.38;1.40;;;3.20;99.90;;;;;;4861558;29;20045;-80
2023/04/26 01:53:47;;;;;;;6.65;2.17;;;3.20;99.90;;;;;;4861843;29;20049;-80
2023/04/26 01:56:14;;;;;;;6.78;2.20;;;3.20;99.90;;;;;;4876671;29;20045;-80
2023/04/26 01:58:41;;;;;;;5.68;1.83;;;3.60;99.90;;;;;;4861675;29;20125;-80
2023/04/26 02:01:08;;;;;;;7.47;2.00;;;3.10;99.90;;;;;;4876832;29;20082;-80
2023/04/26 02:03:35;;;;;;;9.18;2.10;;;3.70;99.90;;;;;;4861682;29;20049;-80
2023/04/26 02:06:02;;;;;;;9.85;2.00;;;3.20;99.90;;;;;;4847004;29;20407;-80
2023/04/26 02:08:30;;;;;;;9.07;2.63;;;3.20;99.90;;;;;;4892230;29;20062;-80
2023/04/26 02:10:56;;;;;;;5.47;2.17;;;3.40;99.90;;;;;;4861952;29;20529;-80
2023/04/26 02:13:23;;;;;;;5.30;1.90;;;3.20;99.90;;;;;;4876599;29;20041;-80
2023/04/26 02:15:51;;;;;;;7.68;2.88;;;3.30;99.90;;;;;;4861901;29;20129;-80
2023/04/26 02:18:20;;;;;;;8.75;2.00;;;4.00;99.90;;;;;;4876747;29;20387;-80
2023/04/26 02:20:47;;;;;;;6.50;2.00;;;3.30;99.90;;;;;;4876901;29;20759;-80
2023/04/26 02:23:14;;;;;;;9.13;2.08;;;3.40;99.90;;;;;;4876641;29;20098;-80
2023/04/26 02:25:44;;;;;;;5.68;1.83;;;3.50;99.90;;;;;;4891843;29;20091;-80
2023/04/26 02:28:10;;;;;;;6.90;1.90;;;3.40;99.90;;;;;;4877000;29;20052;-80
2023/04/26 02:30:37;;;;;;;7.95;1.90;;;3.50;99.90;;;;;;4891596;29;20041;-80
2023/04/26 02:33:04;;;;;;;5.68;1.50;;;3.50;99.90;;;;;;4861513;29;20089;-80
2023/04/26 02:35:30;;;;;;;8.75;2.15;;;3.50;99.90;;;;;;4876285;29;20037;-80
2023/04/26 02:37:57;;;;;;;7.45;1.90;;;3.80;99.90;;;;;;4861231;29;20048;-80
2023/04/26 02:40:24;;;;;;;8.18;1.95;;;3.50;99.90;;;;;;4876609;29;20045;-80
2023/04/26 02:42:50;;;;;;;5.50;1.70;;;3.50;99.90;;;;;;4862351;29;20461;-80
2023/04/26 02:45:17;;;;;;;10.38;2.00;;;3.40;99.90;;;;;;4879785;29;20137;-80
2023/04/26 02:47:44;;;;;;;6.47;2.22;;;3.30;99.90;;;;;;4895075;29;20046;-80
2023/04/26 02:50:11;;;;;;;6.22;2.20;;;3.50;99.90;;;;;;4849602;29;20056;-80
2023/04/26 02:52:37;;;;;;;7.50;2.42;;;3.20;99.90;;;;;;4864460;29;20077;-80
2023/04/26 02:55:05;;;;;;;7.35;2.03;;;3.20;99.90;;;;;;4865295;29;20096;-80
2023/04/26 02:57:32;;;;;;;8.13;2.30;;;3.20;99.90;;;;;;4869780;29;20037;-80
2023/04/26 02:59:59;;;;;;;5.82;1.80;;;3.20;99.90;;;;;;4884071;29;20090;-80
2023/04/26 03:02:26;;;;;;;9.23;2.00;;;3.10;99.90;;;;;;4883647;29;20053;-80
2023/04/26 03:04:52;;;;;;;8.43;2.47;;;3.10;99.90;;;;;;4883393;29;20047;-80
2023/04/26 03:07:19;;;;;;;9.43;2.13;;;3.10;99.90;;;;;;4889176;29;20054;-80
2023/04/26 03:09:46;;;;;;;12.57;2.38;;;3.10;99.90;;;;;;4880079;29;20077;-80
2023/04/26 03:12:12;;;;;;;6.15;2.22;;;3.00;99.90;;;;;;4864690;29;20164;-80
2023/04/26 03:14:39;;;;;;;12.00;2.60;;;3.00;99.90;;;;;;4880079;29;20379;-80
2023/04/26 03:17:06;;;;;;;9.15;1.80;;;3.10;99.90;;;;;;4879831;29;20089;-80
2023/04/26 03:19:33;;;;;;;7.35;2.55;;;3.00;99.90;;;;;;4879722;29;20415;-80
2023/04/26 03:22:00;;;;;;;6.65;1.90;;;3.00;99.90;;;;;;4864159;29;20045;-80
2023/04/26 03:24:26;;;;;;;5.43;2.20;;;3.30;99.90;;;;;;4879354;29;20133;-80
2023/04/26 03:26:53;;;;;;;10.57;2.72;;;2.90;99.90;;;;;;4879010;29;20053;-80
2023/04/26 03:29:20;;;;;;;6.53;2.10;;;2.90;99.90;;;;;;4863998;29;20436;-80
2023/04/26 03:31:47;;;;;;;5.40;2.30;;;2.80;99.90;;;;;;4849130;29;20044;-80
2023/04/26 03:34:13;;;;;;;8.50;3.15;;;2.80;99.90;;;;;;4879704;29;20117;-80
2023/04/26 03:36:40;;;;;;;9.52;4.70;;;2.80;99.90;;;;;;4879043;29;20050;-80
2023/04/26 03:39:07;;;;;;;13.50;5.72;;;3.50;99.90;;;;;;4860944;29;20049;-79
2023/04/26 03:41:35;;;;;;;14.75;5.63;;;2.80;99.90;;;;;;4848557;29;20068;-80
2023/04/26 03:44:02;;;;;;;12.38;6.20;;;2.80;99.90;;;;;;4894587;29;20104;-80
2023/04/26 03:46:29;;;;;;;15.93;6.10;;;2.80;99.90;;;;;;4879092;29;20049;-80
2023/04/26 03:48:55;;;;;;;12.13;6.30;;;3.60;99.90;;;;;;4863558;29;20519;-80
2023/04/26 03:51:22;;;;;;;15.60;6.75;;;2.80;99.90;;;;;;4894505;29;20042;-80
2023/04/26 03:53:49;;;;;;;14.60;6.50;;;2.90;99.90;;;;;;4878150;29;20053;-80
2023/04/26 03:56:16;;;;;;;15.00;6.18;;;3.50;99.90;;;;;;4878091;29;20128;-80
2023/04/26 03:58:43;;;;;;;11.90;4.93;;;3.00;99.90;;;;;;4863072;29;20131;-80
2023/04/26 04:01:09;;;;;;;10.20;4.15;;;2.90;99.90;;;;;;4878825;29;20498;-81
2023/04/26 04:03:36;;;;;;;7.68;2.10;;;3.00;99.90;;;;;;4878330;29;20046;-80
2023/04/26 04:06:03;;;;;;;7.40;2.03;;;3.00;99.90;;;;;;4878377;29;20133;-80
2023/04/26 04:08:30;;;;;;;7.78;2.13;;;3.00;99.90;;;;;;4862930;29;20073;-80
2023/04/26 04:10:57;;;;;;;6.43;2.00;;;3.00;99.90;;;;;;4862881;29;20410;-80
2023/04/26 04:13:24;;;;;;;7.43;2.00;;;3.10;99.90;;;;;;4863025;29;20073;-80
2023/04/26 04:15:51;;;;;;;8.13;1.83;;;3.10;99.90;;;;;;4877686;29;20061;-80
2023/04/26 04:18:17;;;;;;;5.72;2.22;;;3.20;99.90;;;;;;4878456;29;20086;-80
2023/04/26 04:20:44;;;;;;;6.07;2.22;;;3.90;99.90;;;;;;4878086;29;20041;-80
2023/04/26 04:23:11;;;;;;;8.25;2.22;;;3.50;99.90;;;;;;4878191;29;20519;-80
2023/04/26 04:25:38;;;;;;;6.45;2.40;;;3.50;99.90;;;;;;4862730;29;20090;-80
2023/04/26 04:28:05;;;;;;;7.38;1.90;;;3.30;99.90;;;;;;4878306;29;20045;-80
2023/04/26 04:30:32;;;;;;;7.10;1.95;;;3.30;99.90;;;;;;4863331;29;20101;-80
2023/04/26 04:32:59;;;;;;;6.03;2.20;;;3.40;99.90;;;;;;4862795;29;20045;-80
2023/04/26 04:35:27;;;;;;;7.50;2.45;;;3.40;99.90;;;;;;4863023;29;20451;-80
2023/04/26 04:37:57;;;;;;;6.70;2.30;;;3.30;99.90;;;;;;4862622;29;20091;-80
2023/04/26 04:40:25;;;;;;;4.55;1.60;;;3.30;99.90;;;;;;4877573;29;20045;-80
2023/04/26 04:42:52;;;;;;;5.47;1.90;;;3.50;99.90;;;;;;4877670;29;20468;-80
2023/04/26 04:45:19;;;;;;;6.65;1.85;;;3.30;99.90;;;;;;4877727;29;20058;-80
2023/04/26 04:47:46;;;;;;;6.75;2.40;;;3.80;99.90;;;;;;4877620;29;20136;-80
2023/04/26 04:50:13;;;;;;;7.18;2.08;;;3.30;99.90;;;;;;4877884;29;20044;-80
2023/04/26 04:52:41;;;;;;;9.98;2.30;;;3.40;99.90;;;;;;4862459;29;20491;-80
2023/04/26 04:55:08;;;;;;;7.03;2.20;;;3.30;99.90;;;;;;4862831;29;20479;-80
2023/04/26 04:57:35;;;;;;;6.95;2.10;;;3.40;99.90;;;;;;4877531;29;20045;-80
2023/04/26 05:00:09;;;;;;;8.80;1.95;;;3.40;99.90;;;;;;4862698;29;20046;-80
2023/04/26 05:02:36;;;;;;;6.65;2.13;;;3.40;99.90;;;;;;4877809;29;20057;-80
2023/04/26 05:05:03;;;;;;;5.97;2.13;;;3.40;99.90;;;;;;4861846;29;20045;-80
2023/04/26 05:07:31;;;;;;;7.45;2.35;;;3.40;99.90;;;;;;4892823;29;20069;-80
2023/04/26 05:09:58;;;;;;;6.53;1.85;;;3.50;99.90;;;;;;4877107;29;20050;-80
2023/04/26 05:12:26;;;;;;;6.25;2.10;;;3.50;99.90;;;;;;4877592;29;20513;-80
2023/04/26 05:14:52;;;;;;;8.77;2.33;;;3.60;99.90;;;;;;4877505;29;20037;-80
2023/04/26 05:17:19;;;;;;;8.60;2.35;;;3.70;99.90;;;;;;4847359;29;20101;-80
2023/04/26 05:19:46;;;;;;;7.47;2.00;;;3.80;99.90;;;;;;4847137;29;20055;-80
2023/04/26 05:22:17;;;;;;;5.43;2.15;;;4.20;99.90;;;;;;4862544;29;20057;-80
2023/04/26 05:24:46;;;;;;;4.90;1.70;;;3.90;99.90;;;;;;4877196;29;20482;-80
2023/04/26 05:27:13;;;;;;;11.18;2.58;;;4.20;99.90;;;;;;4892833;29;20041;-80
2023/04/26 05:29:40;;;;;;;6.88;2.15;;;4.20;99.90;;;;;;4892472;29;20529;-80
2023/04/26 05:32:07;;;;;;;7.10;2.10;;;4.10;99.90;;;;;;4876961;29;20448;-80
2023/04/26 05:34:33;;;;;;;4.93;2.08;;;4.20;99.90;;;;;;4859130;29;20046;-80
2023/04/26 05:37:00;;;;;;;7.43;1.90;;;4.20;99.90;;;;;;4858852;29;20500;-81
2023/04/26 05:39:27;;;;;;;4.15;1.75;;;4.30;99.90;;;;;;4859328;29;20745;-80
2023/04/26 05:41:53;;;;;;;9.32;2.22;;;4.40;99.90;;;;;;4861192;29;20046;-80
2023/04/26 05:44:20;;;;;;;5.55;1.67;;;4.90;99.90;;;;;;4862263;29;20042;-80
2023/04/26 05:46:47;;;;;;;7.47;2.30;;;4.60;99.90;;;;;;4877449;29;20136;-80
2023/04/26 05:49:14;;;;;;;4.47;1.60;;;4.60;99.90;;;;;;4862387;29;20070;-80
2023/04/26 05:51:40;;;;;;;8.68;1.75;;;4.70;99.90;;;;;;4868422;29;20045;-80
2023/04/26 05:54:07;;;;;;;3.65;1.65;;;4.90;99.90;;;;;;4873639;29;20052;-80
2023/04/26 05:56:34;;;;;;;6.30;1.80;;;4.80;99.90;;;;;;4862130;29;20084;-80
2023/04/26 05:59:00;;;;;;;5.90;1.65;;;4.80;99.90;;;;;;4879874;29;20041;-80
2023/04/26 06:01:27;;;;;;;7.47;1.83;;;4.80;99.90;;;;;;4877229;29;20053;-80
2023/04/26 06:03:54;;;;;;;6.20;1.90;;;4.90;99.90;;;;;;4891760;29;20042;-80
2023/04/26 06:06:20;;;;;;;8.80;2.03;;;4.90;99.90;;;;;;4862223;29;20046;-80
2023/04/26 06:08:47;;;;;;;5.63;1.92;;;5.00;99.90;;;;;;4873483;29;20065;-81
2023/04/26 06:11:14;;;;;;;5.65;1.90;;;4.90;99.90;;;;;;4842986;29;20101;-80
2023/04/26 06:13:40;;;;;;;8.00;1.90;;;4.90;99.90;;;;;;4848598;29;20045;-81
2023/04/26 06:16:08;;;;;;;6.60;2.00;;;5.70;99.90;;;;;;4842983;29;20046;-80
2023/04/26 06:18:35;;;;;;;4.60;1.70;;;5.10;99.90;;;;;;4860660;29;20046;-80
2023/04/26 06:21:02;;;;;;;5.50;2.13;;;4.90;99.90;;;;;;4877283;29;20038;-80
2023/04/26 06:23:28;;;;;;;7.88;1.85;;;4.90;99.90;;;;;;4862079;29;20110;-80
2023/04/26 06:25:55;;;;;;;7.45;1.65;;;5.00;99.90;;;;;;4861606;29;20064;-80
2023/04/26 06:28:22;;;;;;;5.45;1.58;;;5.30;99.90;;;;;;4847023;29;20038;-80
2023/04/26 06:30:48;;;;;;;6.57;2.00;;;5.10;99.90;;;;;;4861673;29;20075;-80
2023/04/26 06:33:15;;;;;;;6.63;1.70;;;5.20;99.90;;;;;;4861464;29;20132;-80
2023/04/26 06:35:42;;;;;;;5.55;1.67;;;5.30;99.90;;;;;;4879457;29;20046;-80
2023/04/26 06:38:11;;;;;;;6.60;1.60;;;5.40;99.90;;;;;;4879912;29;20105;-80
2023/04/26 06:40:38;;;;;;;6.88;2.00;;;5.50;99.90;;;;;;4880244;29;20566;-80
2023/04/26 06:43:05;;;;;;;8.63;2.17;;;5.60;99.90;;;;;;4880019;29;20129;-80
2023/04/26 06:45:31;;;;;;;7.97;2.22;;;5.50;99.90;;;;;;4895215;29;20049;-80
2023/04/26 06:47:59;;;;;;;5.20;1.75;;;5.60;99.90;;;;;;4879469;29;20118;-79
2023/04/26 06:50:26;;;;;;;6.05;1.90;;;5.80;99.90;;;;;;4880172;29;20088;-80
2023/04/26 06:52:53;;;;;;;11.05;2.15;;;5.50;99.90;;;;;;4879376;29;20076;-80
2023/04/26 06:55:19;;;;;;;4.78;1.67;;;5.40;99.90;;;;;;4879095;29;20077;-80
2023/04/26 06:57:46;;;;;;;4.05;1.63;;;5.30;99.90;;;;;;4879911;29;20046;-79
2023/04/26 07:00:13;;;;;;;5.30;1.48;;;5.30;99.90;;;;;;4864087;29;20049;-80
2023/04/26 07:02:40;;;;;;;5.95;1.70;;;5.20;99.90;;;;;;4864665;29;20049;-80
2023/04/26 07:05:08;;;;;;;6.32;1.85;;;5.20;99.90;;;;;;4863746;29;20048;-80
2023/04/26 07:07:34;;;;;;;5.10;1.70;;;5.20;99.90;;;;;;4849283;29;20057;-80
2023/04/26 07:10:03;;;;;;;3.55;1.60;;;5.20;99.90;;;;;;4864706;29;20110;-80
2023/04/26 07:12:30;;;;;;;7.47;1.77;;;5.30;99.90;;;;;;4897032;29;20045;-80
2023/04/26 07:14:56;;;;;;;5.32;1.65;;;5.20;99.90;;;;;;4877129;29;20053;-80
2023/04/26 07:17:23;;;;;;;4.80;1.65;;;5.20;99.90;;;;;;4849691;29;20117;-80
2023/04/26 07:19:50;;;;;;;4.65;1.52;;;5.20;99.90;;;;;;4863275;29;20380;-80
2023/04/26 07:22:16;;;;;;;5.40;1.65;;;5.20;99.90;;;;;;4894717;29;20557;-80
2023/04/26 07:24:43;;;;;;;6.25;1.77;;;5.20;99.90;;;;;;4898252;29;20045;-79
2023/04/26 07:27:10;;;;;;;7.97;2.08;;;5.20;99.90;;;;;;4913218;29;20047;-80
2023/04/26 07:29:38;;;;;;;4.75;1.80;;;5.40;99.90;;;;;;4895028;29;20113;-79
2023/04/26 07:32:05;;;;;;;4.57;1.98;;;5.50;99.90;;;;;;4878894;29;20084;-80
2023/04/26 07:34:32;;;;;;;11.23;1.90;;;5.70;99.90;;;;;;4848588;29;20053;-80
2023/04/26 07:36:59;;;;;;;8.60;2.03;;;5.80;99.90;;;;;;4878645;29;20052;-80
2023/04/26 07:39:26;;;;;;;4.20;2.28;;;6.00;99.90;;;;;;4849015;29;20057;-80
2023/04/26 07:41:52;;;;;;;6.88;1.90;;;6.10;99.90;;;;;;4863141;29;20041;-79
2023/04/26 07:44:19;;;;;;;6.13;2.08;;;6.30;99.90;;;;;;4872550;29;20155;-84
2023/04/26 07:46:46;;;;;;;4.97;1.85;;;6.40;99.90;;;;;;4852609;29;20053;-84
2023/04/26 07:49:12;;;;;;;8.25;1.98;;;6.60;99.90;;;;;;4863246;29;20041;-79
2023/04/26 07:51:42;;;;;;;6.32;2.00;;;6.70;99.90;;;;;;4862761;29;20049;-78
2023/04/26 07:54:09;;;;;;;6.75;2.35;;;7.00;99.90;;;;;;4893308;29;20510;-79
2023/04/26 07:56:36;;;;;;;5.15;2.08;;;7.10;99.90;;;;;;4893287;29;20434;-79
2023/04/26 07:59:03;;;;;;;7.75;1.98;;;7.40;99.90;;;;;;4862614;29;20053;-80
2023/04/26 08:01:30;;;;;;;8.20;2.10;;;7.60;99.90;;;;;;4862734;29;20065;-79
2023/04/26 08:03:57;;;;;;;6.15;1.58;;;7.70;99.90;;;;;;4877918;29;20049;-80
2023/04/26 08:06:23;;;;;;;6.05;1.80;;;7.70;99.90;;;;;;4877175;29;20045;-79
2023/04/26 08:08:51;;;;;;;10.18;2.10;;;7.70;99.90;;;;;;4877576;29;20053;-79
2023/04/26 08:11:18;;;;;;;7.15;1.70;;;7.70;99.90;;;;;;4877582;29;20072;-79
2023/04/26 08:13:45;;;;;;;7.38;1.80;;;7.90;99.90;;;;;;4877644;29;20140;-79
2023/04/26 08:16:12;;;;;;;8.25;1.88;;;8.00;99.90;;;;;;4877323;29;20517;-79
2023/04/26 08:18:39;;;;;;;14.68;2.75;;;8.10;99.90;;;;;;4877601;29;20456;-79
2023/04/26 08:21:05;;;;;;;5.85;1.65;;;8.20;99.90;;;;;;4858728;29;20085;-80
2023/04/26 08:23:34;;;;;;;6.32;1.77;;;8.20;99.90;;;;;;4844020;29;20041;-80
2023/04/26 08:26:01;;;;;;;9.95;1.85;;;8.10;99.90;;;;;;4859382;29;20038;-79
2023/04/26 08:28:28;;;;;;;4.45;1.50;;;8.10;99.90;;;;;;4879524;29;20415;-79
2023/04/26 08:30:55;;;;;;;7.95;1.58;;;8.20;99.90;;;;;;4862287;29;20056;-79
2023/04/26 08:33:22;;;;;;;8.60;1.80;;;8.40;99.90;;;;;;4877121;29;20477;-80
2023/04/26 08:35:48;;;;;;;4.95;1.50;;;8.40;99.90;;;;;;4861646;29;20133;-79
2023/04/26 08:38:15;;;;;;;9.57;1.70;;;8.30;99.90;;;;;;4861534;29;20119;-79
2023/04/26 08:40:45;;;;;;;3.75;1.40;;;8.20;99.90;;;;;;4861656;29;20043;-79
2023/04/26 08:43:15;;;;;;;4.35;1.67;;;8.30;99.90;;;;;;4876799;29;20045;-79
2023/04/26 08:45:45;;;;;;;7.72;1.63;;;8.30;99.90;;;;;;4892630;29;20049;-79
2023/04/26 08:48:16;;;;;;;6.05;1.80;;;8.20;99.90;;;;;;4892474;29;20041;-79
2023/04/26 08:50:45;;;;;;;7.45;1.80;;;8.10;99.90;;;;;;4863172;29;20037;-79
2023/04/26 08:53:18;;;;;;;4.30;1.75;;;8.10;99.90;;;;;;4876942;29;20049;-79
2023/04/26 08:55:49;;;;;;;7.03;1.80;;;8.10;99.90;;;;;;4877567;29;20088;-79
2023/04/26 08:58:17;;;;;;;3.95;1.80;;;8.20;99.90;;;;;;4876700;29;20487;-79
2023/04/26 09:00:44;;;;;;;4.15;1.55;;;8.10;99.90;;;;;;4892002;29;20120;-79
2023/04/26 09:03:11;;;;;;;8.68;2.45;;;8.10;99.90;;;;;;4876472;29;20109;-79
2023/04/26 09:05:44;;;;;;;6.05;2.00;;;8.20;99.90;;;;;;4892051;29;20495;-79
2023/04/26 09:08:15;;;;;;;6.05;2.00;;;8.30;99.90;;;;;;4876499;29;20053;-80
2023/04/26 09:10:42;;;;;;;3.88;1.48;;;8.40;99.90;;;;;;4876850;29;20871;-79
2023/04/26 09:13:10;;;;;;;5.38;1.58;;;8.60;99.90;;;;;;4891789;29;20665;-80
2023/04/26 09:15:37;;;;;;;7.05;1.35;;;8.70;99.90;;;;;;4892191;29;20060;-79
2023/04/26 09:18:21;;;;;;;5.97;1.25;;;8.70;99.90;;;;;;4877157;29;20057;-79
2023/04/26 09:21:03;;;;;;;2.95;1.20;;;8.50;99.90;;;;;;4876714;29;20514;-80
2023/04/26 09:23:30;;;;;;;5.93;1.52;;;8.10;99.90;;;;;;4891568;29;20085;-79
2023/04/26 09:26:17;;;;;;;7.22;1.40;;;7.90;99.90;;;;;;4861990;29;20051;-79
2023/04/26 09:28:45;;;;;;;5.55;1.20;;;7.60;99.90;;;;;;4891880;29;20112;-79
2023/04/26 09:31:42;;;;;;;3.78;1.23;;;7.50;99.90;;;;;;4876422;29;20506;-80
2023/04/26 09:34:11;;;;;;;7.07;1.40;;;7.30;99.90;;;;;;4876065;29;20072;-79
2023/04/26 09:36:52;;;;;;;4.68;1.10;;;7.30;99.90;;;;;;4876473;29;20583;-80
2023/04/26 09:39:38;;;;;;;3.90;1.00;;;7.30;99.90;;;;;;4891735;29;20081;-79
2023/04/26 09:42:06;;;;;;;5.15;1.08;;;7.40;99.90;;;;;;4891871;29;20609;-79
2023/04/26 09:44:34;;;;;;;4.72;1.15;;;7.50;99.90;;;;;;4861071;29;20510;-79
2023/04/26 09:47:04;;;;;;;6.40;1.30;;;7.50;99.90;;;;;;4876171;29;20052;-79
2023/04/26 09:49:43;;;;;;;5.30;1.20;;;7.50;99.90;;;;;;4875868;29;20497;-79
2023/04/26 09:52:09;;;;;;;5.95;1.17;;;7.50;99.90;;;;;;4891831;29;20042;-79
2023/04/26 09:54:48;;;;;;;5.55;1.10;;;7.50;99.90;;;;;;4846885;29;20046;-80
2023/04/26 09:57:16;;;;;;;6.93;1.30;;;7.50;99.90;;;;;;4872898;29;20086;-80
2023/04/26 09:59:48;;;;;;;8.07;1.30;;;7.50;99.90;;;;;;4842499;29;20052;-79
2023/04/26 10:02:25;;;;;;;3.47;1.02;;;7.60;99.90;;;;;;4864115;29;20070;-79
2023/04/26 10:04:54;;;;;;;4.95;1.10;;;7.70;99.90;;;;;;4889058;29;20520;-80
2023/04/26 10:07:23;;;;;;;4.45;1.10;;;7.70;99.90;;;;;;4893748;29;20056;-80
2023/04/26 10:09:50;;;;;;;3.90;1.23;;;7.90;99.90;;;;;;4868462;29;20502;-79
2023/04/26 10:12:18;;;;;;;6.15;1.45;;;8.00;99.90;;;;;;4882926;29;20125;-79
2023/04/26 10:14:45;;;;;;;3.38;0.90;;;8.10;99.90;;;;;;4875968;29;20041;-79
2023/04/26 10:17:13;;;;;;;3.63;1.10;;;8.10;99.90;;;;;;4875880;29;20477;-80
2023/04/26 10:19:43;;;;;;;3.53;1.05;;;8.20;99.90;;;;;;4894153;29;20088;-79
2023/04/26 10:22:25;;;;;;;5.55;1.33;;;8.30;99.90;;;;;;4878539;29;20082;-79
2023/04/26 10:24:53;;;;;;;5.18;1.30;;;8.40;99.90;;;;;;4876014;29;20049;-80
2023/04/26 10:27:42;;;;;;;3.65;1.08;;;8.40;99.90;;;;;;4890950;29;20448;-79
2023/04/26 10:30:13;;;;;;;6.93;1.45;;;8.50;99.90;;;;;;4891204;29;20394;-79
2023/04/26 10:33:00;;;;;;;12.52;1.80;;;8.60;99.90;;;;;;4891099;29;20044;-80
2023/04/26 10:35:29;;;;;;;4.75;1.17;;;8.60;99.90;;;;;;4869327;29;20483;-79
2023/04/26 10:37:59;;;;;;;4.55;1.05;;;8.70;99.90;;;;;;4891108;29;20049;-80
2023/04/26 10:40:30;;;;;;;5.53;1.55;;;8.70;99.90;;;;;;4875692;29;20105;-80
2023/04/26 10:43:13;;;;;;;6.22;1.45;;;8.80;99.90;;;;;;4876045;29;20042;-80
2023/04/26 10:45:44;;;;;;;4.28;1.50;;;9.00;99.90;;;;;;4875586;29;20052;-79
2023/04/26 10:48:17;;;;;;;8.48;1.88;;;9.10;99.90;;;;;;4875814;29;20045;-79
2023/04/26 10:51:11;;;;;;;6.45;2.13;;;9.10;99.90;;;;;;4875616;29;20050;-79
2023/04/26 10:53:46;;;;;;;5.70;2.03;;;9.10;99.90;;;;;;4875382;29;20542;-80
2023/04/26 10:56:22;;;;;;;6.47;2.30;;;9.10;99.90;;;;;;4891084;29;20519;-80
2023/04/26 10:59:06;;;;;;;6.18;1.83;;;8.90;99.90;;;;;;4875984;29;20098;-80
2023/04/26 11:01:33;;;;;;;7.05;2.50;;;8.70;99.90;;;;;;4875535;29;20049;-79
2023/04/26 11:04:11;;;;;;;7.05;1.80;;;8.60;99.90;;;;;;4876177;29;20474;-79
2023/04/26 11:06:59;;;;;;;14.50;4.00;;;8.40;99.90;;;;;;4894016;29;20128;-79
2023/04/26 11:09:35;;;;;;;3.15;1.50;;;8.40;99.90;;;;;;4879347;29;20053;-80
2023/04/26 11:12:13;;;;;;;6.75;1.55;;;8.40;99.90;;;;;;4894480;29;20042;-80
2023/04/26 11:14:41;;;;;;;7.22;1.83;;;8.40;99.90;;;;;;4878783;29;20072;-79
2023/04/26 11:17:08;;;;;;;7.55;1.90;;;8.50;99.90;;;;;;4863750;29;20134;-79
2023/04/26 11:19:35;;;;;;;5.82;1.95;;;8.60;99.90;;;;;;4863368;29;20463;-79
2023/04/26 11:22:06;;;;;;;3.22;1.40;;;8.60;99.90;;;;;;4863993;29;20060;-79
2023/04/26 11:24:37;;;;;;;6.43;1.40;;;8.60;99.90;;;;;;4878420;29;20042;-79
2023/04/26 11:27:09;;;;;;;5.53;1.52;;;8.60;99.90;;;;;;4893949;29;20056;-80
2023/04/26 11:29:36;;;;;;;8.23;1.50;;;8.60;99.90;;;;;;4863186;29;20109;-80
2023/04/26 11:32:03;;;;;;;7.05;1.80;;;8.50;99.90;;;;;;4878745;29;20037;-79
2023/04/26 11:34:30;;;;;;;6.32;1.90;;;8.30;99.90;;;;;;4878348;29;20049;-79
2023/04/26 11:36:57;;;;;;;8.65;1.85;;;8.40;99.90;;;;;;4878574;29;20482;-79
2023/04/26 11:39:24;;;;;;;4.90;1.50;;;8.30;99.90;;;;;;4863370;29;20056;-79
2023/04/26 11:41:55;;;;;;;8.13;1.92;;;8.30;99.90;;;;;;4863220;29;20089;-80
2023/04/26 11:44:21;;;;;;;6.25;1.52;;;8.30;99.90;;;;;;4894113;29;20046;-79
2023/04/26 11:46:49;;;;;;;9.40;1.23;;;8.20;99.90;;;;;;4859828;29;20049;-80
2023/04/26 11:49:16;;;;;;;6.22;1.35;;;8.20;99.90;;;;;;4860130;29;20054;-79
2023/04/26 11:51:47;;;;;;;7.88;1.45;;;8.10;99.90;;;;;;4859802;29;20053;-79
2023/04/26 11:54:30;;;;;;;5.43;1.80;;;8.00;99.90;;;;;;4860584;29;20050;-79
2023/04/26 11:56:57;;;;;;;6.13;1.30;;;8.00;99.90;;;;;;4874739;29;20495;-79
2023/04/26 11:59:25;;;;;;;5.63;1.13;;;8.00;99.90;;;;;;4873742;29;20050;-80
2023/04/26 12:01:52;;;;;;;5.78;1.80;;;7.90;99.90;;;;;;4878405;29;20132;-79
2023/04/26 12:04:19;;;;;;;5.22;1.52;;;7.60;99.90;;;;;;4894345;29;20052;-79
2023/04/26 12:06:46;;;;;;;3.53;1.17;;;7.60;99.90;;;;;;4859998;29;20050;-79
2023/04/26 12:09:12;;;;;;;4.03;1.20;;;7.50;99.90;;;;;;4875353;29;20845;-79
2023/04/26 12:11:39;;;;;;;7.20;1.38;;;7.50;99.90;;;;;;4859933;29;20052;-79
2023/04/26 12:14:10;;;;;;;3.50;1.00;;;7.40;99.90;;;;;;4860485;29;20053;-80
2023/04/26 12:16:36;;;;;;;2.28;1.15;;;7.40;99.90;;;;;;4876327;29;20140;-79
2023/04/26 12:19:07;;;;;;;3.05;1.33;;;7.50;99.90;;;;;;4863780;29;20570;-80
2023/04/26 12:21:41;;;;;;;4.10;1.25;;;7.40;99.90;;;;;;4878375;29;20056;-79
2023/04/26 12:24:24;;;;;;;4.13;1.40;;;7.50;99.90;;;;;;4893655;29;20482;-80
2023/04/26 12:26:51;;;;;;;8.20;1.23;;;7.50;99.90;;;;;;4893275;29;20387;-79
2023/04/26 12:29:18;;;;;;;4.00;1.10;;;7.60;99.90;;;;;;4898475;29;20032;-79
2023/04/26 12:31:45;;;;;;;6.15;1.35;;;7.60;99.90;;;;;;4881332;29;20045;-79
2023/04/26 12:34:12;;;;;;;5.32;1.33;;;7.70;99.90;;;;;;4881924;29;20080;-79
2023/04/26 12:36:43;;;;;;;4.45;1.40;;;7.80;99.90;;;;;;4896607;29;20093;-80
2023/04/26 12:39:12;;;;;;;5.90;1.38;;;7.90;99.90;;;;;;4861893;29;20050;-79
2023/04/26 12:41:39;;;;;;;2.13;1.00;;;8.00;99.90;;;;;;4875011;29;20038;-80
2023/04/26 12:44:08;;;;;;;5.20;1.38;;;8.10;99.90;;;;;;4884241;29;20064;-78
2023/04/26 12:46:35;;;;;;;9.70;1.30;;;8.20;99.90;;;;;;4895877;29;20132;-80
2023/04/26 12:49:02;;;;;;;5.40;1.40;;;8.40;99.90;;;;;;4883134;29;20041;-79
2023/04/26 12:51:30;;;;;;;3.95;1.08;;;8.50;99.90;;;;;;4863001;29;20049;-79
2023/04/26 12:53:57;;;;;;;4.00;1.30;;;8.60;99.90;;;;;;4877766;29;20054;-79
2023/04/26 12:56:24;;;;;;;4.13;1.73;;;8.70;99.90;;;;;;4849911;29;20399;-80
2023/04/26 12:58:51;;;;;;;8.55;1.70;;;8.80;99.90;;;;;;4881553;29;20081;-80
2023/04/26 13:01:17;;;;;;;5.60;2.08;;;8.60;99.90;;;;;;4882998;29;20125;-80
2023/04/26 13:03:44;;;;;;;5.18;1.52;;;8.60;99.90;;;;;;4870782;29;20053;-78